Time;durP1;ratioP1;P1;durP2;ratioP2;P2;SDS_P1;SDS_P2;PMS_P1;PMS_P2;Temp;Humidity;BMP_temperature;BMP_pressure;BME280_temperature;BME280_humidity;BME280_pressure;Samples;Min_cycle;Max_cycle;Signal;HPM_P1;HPM_P2
2021/11/19 00:02:00;;;;;;;2.80;1.30;;;11.80;99.90;;;;;;4971778;28;20035;-95
2021/11/19 00:04:27;;;;;;;2.45;1.42;;;11.80;99.90;;;;;;4956579;28;20567;-94
2021/11/19 00:06:54;;;;;;;3.88;1.30;;;11.80;99.90;;;;;;4955603;28;20042;-94
2021/11/19 00:09:21;;;;;;;4.20;1.40;;;11.70;99.90;;;;;;4956279;28;20023;-94
2021/11/19 00:11:49;;;;;;;4.60;1.05;;;11.80;99.90;;;;;;4954409;28;20032;-95
2021/11/19 00:14:21;;;;;;;3.58;1.15;;;11.80;99.90;;;;;;4966688;28;20080;-94
2021/11/19 00:16:49;;;;;;;6.82;1.20;;;11.80;99.90;;;;;;4968075;28;20031;-93
2021/11/19 00:19:15;;;;;;;4.63;1.10;;;11.90;99.90;;;;;;4952873;28;20046;-94
2021/11/19 00:21:42;;;;;;;4.20;0.95;;;11.80;99.90;;;;;;4953887;28;20122;-95
2021/11/19 00:24:09;;;;;;;2.10;0.95;;;11.80;99.90;;;;;;4955700;28;20114;-95
2021/11/19 00:26:36;;;;;;;3.83;1.35;;;11.90;99.90;;;;;;4955772;28;20019;-95
2021/11/19 00:29:03;;;;;;;4.57;1.00;;;11.90;99.90;;;;;;4955364;28;20118;-95
2021/11/19 00:31:32;;;;;;;5.03;1.55;;;11.90;99.90;;;;;;4959934;28;20027;-96
2021/11/19 00:33:58;;;;;;;4.43;0.95;;;11.90;99.90;;;;;;4955742;28;20035;-96
2021/11/19 00:36:26;;;;;;;4.13;1.80;;;11.90;99.90;;;;;;4955913;28;20031;-96
2021/11/19 00:38:56;;;;;;;5.85;1.73;;;11.90;99.90;;;;;;4956328;28;20148;-96
2021/11/19 00:41:22;;;;;;;4.47;1.55;;;11.90;99.90;;;;;;4957917;28;20045;-95
2021/11/19 00:43:48;;;;;;;3.58;1.10;;;11.80;99.90;;;;;;4956169;28;20074;-94
2021/11/19 00:46:14;;;;;;;3.92;1.10;;;11.80;99.90;;;;;;4955661;29;20035;-95
2021/11/19 00:48:42;;;;;;;3.70;1.30;;;11.80;99.90;;;;;;4955478;28;20023;-95
2021/11/19 00:51:20;;;;;;;3.28;1.27;;;11.80;99.90;;;;;;4959151;28;20062;-96
2021/11/19 00:53:49;;;;;;;3.53;1.27;;;11.70;99.90;;;;;;4960483;28;20187;-95
2021/11/19 00:56:18;;;;;;;2.20;1.08;;;11.70;99.90;;;;;;4960212;28;20038;-95
2021/11/19 00:58:46;;;;;;;6.30;1.05;;;11.70;99.90;;;;;;4963916;28;20104;-95
2021/11/19 01:01:16;;;;;;;3.08;1.20;;;11.60;99.90;;;;;;4966268;29;20031;-96
2021/11/19 01:03:42;;;;;;;7.18;1.30;;;11.60;99.90;;;;;;4963099;29;20093;-96
2021/11/19 01:06:12;;;;;;;3.63;1.00;;;11.60;99.90;;;;;;4972005;29;20035;-96
2021/11/19 01:08:41;;;;;;;3.95;1.00;;;11.60;99.90;;;;;;4958833;29;20027;-96
2021/11/19 01:11:12;;;;;;;5.70;1.23;;;11.60;99.90;;;;;;4958498;28;20039;-95
2021/11/19 01:13:38;;;;;;;;;;;11.50;99.90;;;;;;4957371;29;20019;-96
2021/11/19 01:16:12;;;;;;;3.25;1.00;;;11.50;99.90;;;;;;4958514;28;20005;-94
2021/11/19 01:18:53;;;;;;;4.22;1.00;;;11.50;99.90;;;;;;4961419;28;20032;-95
2021/11/19 01:21:29;;;;;;;2.63;0.90;;;11.50;99.90;;;;;;4964153;28;20035;-95
2021/11/19 01:23:56;;;;;;;3.45;0.93;;;11.50;99.90;;;;;;4970590;28;20090;-95
2021/11/19 01:26:26;;;;;;;2.45;0.95;;;11.50;99.90;;;;;;4963674;28;20055;-96
2021/11/19 01:28:56;;;;;;;2.33;1.15;;;11.40;99.90;;;;;;4962764;29;20035;-95
2021/11/19 01:31:39;;;;;;;2.50;1.35;;;11.40;99.90;;;;;;4962248;28;20047;-95
2021/11/19 01:34:06;;;;;;;5.30;1.00;;;11.30;99.90;;;;;;4962378;28;20023;-94
2021/11/19 01:36:32;;;;;;;3.00;0.95;;;11.40;99.90;;;;;;4966961;29;20043;-95
2021/11/19 01:38:59;;;;;;;6.80;1.10;;;11.30;99.90;;;;;;4971925;28;20039;-94
2021/11/19 01:41:36;;;;;;;3.05;1.02;;;11.30;99.90;;;;;;4968375;29;20054;-95
2021/11/19 01:44:28;;;;;;;2.08;1.10;;;11.30;99.90;;;;;;4965890;28;20023;-96
2021/11/19 01:47:00;;;;;;;3.28;1.10;;;11.30;99.90;;;;;;4965064;28;20095;-95
2021/11/19 01:49:28;;;;;;;4.45;1.20;;;11.20;99.90;;;;;;4965802;29;20054;-96
2021/11/19 01:51:59;;;;;;;7.05;1.38;;;11.30;99.90;;;;;;4963629;29;20023;-96
2021/11/19 01:54:44;;;;;;;2.00;1.17;;;11.30;99.90;;;;;;4967397;28;20037;-96
2021/11/19 01:57:17;;;;;;;2.00;0.70;;;11.20;99.90;;;;;;4961362;28;20047;-95
2021/11/19 01:59:46;;;;;;;3.15;0.82;;;11.20;99.90;;;;;;4959872;28;20031;-96
2021/11/19 02:02:20;;;;;;;5.68;0.70;;;11.20;99.90;;;;;;4965741;28;20031;-95
2021/11/19 02:05:11;;;;;;;1.52;0.70;;;11.20;99.90;;;;;;4950265;28;20028;-95
2021/11/19 02:07:45;;;;;;;4.05;0.90;;;11.30;99.90;;;;;;4965708;28;20544;-95
2021/11/19 02:10:56;;;;;;;3.45;0.63;;;11.30;99.90;;;;;;4969750;29;20034;-95
2021/11/19 02:14:00;;;;;;;2.78;0.90;;;11.30;99.90;;;;;;4971751;28;20070;-96
2021/11/19 02:16:34;;;;;;;2.72;0.77;;;11.30;99.90;;;;;;4976655;28;20035;-94
2021/11/19 02:19:19;;;;;;;3.70;0.90;;;11.30;99.90;;;;;;4979024;28;20027;-94
2021/11/19 02:22:34;;;;;;;2.50;0.90;;;11.40;99.90;;;;;;4980324;28;20026;-96
2021/11/19 02:25:12;;;;;;;3.90;1.10;;;11.40;99.90;;;;;;4979747;28;20047;-96
2021/11/19 02:27:53;;;;;;;2.72;0.90;;;11.40;99.90;;;;;;4972176;29;20042;-96
2021/11/19 02:30:33;;;;;;;5.35;1.10;;;11.50;99.90;;;;;;4955249;29;20485;-96
2021/11/19 02:33:03;;;;;;;2.63;0.70;;;11.50;99.90;;;;;;4968731;28;20039;-96
2021/11/19 02:35:34;;;;;;;1.33;0.75;;;11.50;99.90;;;;;;4970957;29;20059;-96
2021/11/19 02:38:10;;;;;;;4.00;0.65;;;11.50;99.90;;;;;;4962732;29;20098;-95
2021/11/19 02:40:43;;;;;;;1.30;0.80;;;11.40;99.90;;;;;;4969746;28;20070;-96
2021/11/19 02:43:17;;;;;;;2.97;0.77;;;11.40;99.90;;;;;;4965521;28;20019;-96
2021/11/19 02:45:48;;;;;;;5.18;0.93;;;11.40;99.90;;;;;;4959898;29;20042;-94
2021/11/19 02:48:20;;;;;;;1.55;0.60;;;11.40;99.90;;;;;;4957217;28;20073;-96
2021/11/19 02:50:47;;;;;;;6.55;1.10;;;11.40;99.90;;;;;;4958150;28;20035;-95
2021/11/19 02:53:14;;;;;;;3.22;0.60;;;11.40;99.90;;;;;;4959144;28;20039;-96
2021/11/19 02:55:43;;;;;;;3.13;0.93;;;11.40;99.90;;;;;;4958238;28;20023;-95
2021/11/19 02:58:12;;;;;;;1.15;0.60;;;11.40;99.90;;;;;;4958573;28;20038;-94
2021/11/19 03:01:16;;;;;;;2.92;0.73;;;11.40;99.90;;;;;;4958240;28;20043;-95
2021/11/19 03:03:51;;;;;;;3.15;0.60;;;11.40;99.90;;;;;;4972912;28;20035;-96
2021/11/19 03:06:18;;;;;;;2.33;0.60;;;11.40;99.90;;;;;;4958259;28;20027;-95
2021/11/19 03:08:45;;;;;;;2.83;0.63;;;11.40;99.90;;;;;;4960580;28;20027;-95
2021/11/19 03:11:13;;;;;;;4.15;0.70;;;11.40;99.90;;;;;;4962758;28;20024;-95
2021/11/19 03:13:40;;;;;;;3.95;0.45;;;11.40;99.90;;;;;;4962053;29;20059;-94
2021/11/19 03:16:10;;;;;;;4.05;0.68;;;11.40;99.90;;;;;;4968290;28;20082;-96
2021/11/19 03:18:36;;;;;;;3.28;0.90;;;11.40;99.90;;;;;;4967743;28;20417;-96
2021/11/19 03:21:05;;;;;;;0.85;0.63;;;11.40;99.90;;;;;;4968364;29;20054;-96
2021/11/19 03:23:32;;;;;;;4.50;0.98;;;11.40;99.90;;;;;;4967690;28;20092;-96
2021/11/19 03:26:00;;;;;;;2.47;0.55;;;11.40;99.90;;;;;;4966312;28;20086;-96
2021/11/19 03:28:28;;;;;;;2.38;0.90;;;11.40;99.90;;;;;;4968871;29;20037;-96
2021/11/19 03:31:01;;;;;;;1.77;0.63;;;11.40;99.90;;;;;;4973608;28;20099;-96
2021/11/19 03:33:37;;;;;;;1.38;0.57;;;11.50;99.90;;;;;;4970296;28;20031;-95
2021/11/19 03:36:17;;;;;;;2.15;0.70;;;11.50;99.90;;;;;;4971966;28;20026;-94
2021/11/19 03:38:48;;;;;;;1.02;0.70;;;11.50;99.90;;;;;;4966712;28;20039;-96
2021/11/19 03:41:21;;;;;;;2.00;1.00;;;11.50;99.90;;;;;;4970410;29;20035;-95
2021/11/19 03:44:21;;;;;;;3.92;0.75;;;11.50;99.90;;;;;;4969018;29;20091;-96
2021/11/19 03:46:49;;;;;;;3.92;0.82;;;11.50;99.90;;;;;;4963967;28;20035;-94
2021/11/19 03:49:16;;;;;;;4.72;0.93;;;11.50;99.90;;;;;;4961683;28;20074;-93
2021/11/19 03:51:52;;;;;;;3.55;0.85;;;11.50;99.90;;;;;;4962727;28;20039;-95
2021/11/19 03:54:21;;;;;;;4.63;0.70;;;11.50;99.90;;;;;;4968529;29;20039;-96
2021/11/19 03:57:04;;;;;;;;;;;;;;;;;;;;;
2021/11/19 03:59:30;;;;;;;3.88;1.10;;;11.50;99.90;;;;;;4963025;28;20114;-95
2021/11/19 04:01:57;;;;;;;1.90;0.90;;;11.50;99.90;;;;;;4959739;28;20119;-94
2021/11/19 04:04:28;;;;;;;3.97;1.50;;;11.50;99.90;;;;;;4957170;29;20023;-94
2021/11/19 04:06:57;;;;;;;2.97;0.80;;;11.50;99.90;;;;;;4960367;28;20035;-96
2021/11/19 04:09:24;;;;;;;4.75;1.15;;;11.50;99.90;;;;;;4960691;28;20046;-94
2021/11/19 04:11:57;;;;;;;2.63;0.90;;;11.50;99.90;;;;;;4958561;29;20042;-95
2021/11/19 04:14:24;;;;;;;1.80;0.60;;;11.50;99.90;;;;;;4964286;29;20031;-95
2021/11/19 04:16:52;;;;;;;2.80;1.15;;;11.60;99.90;;;;;;4963662;28;20449;-95
2021/11/19 04:19:20;;;;;;;1.30;0.77;;;11.60;99.90;;;;;;4958810;28;20027;-95
2021/11/19 04:21:47;;;;;;;2.75;0.90;;;11.60;99.90;;;;;;4957285;29;20035;-95
2021/11/19 04:24:19;;;;;;;4.32;0.80;;;11.60;99.90;;;;;;4961948;28;20515;-94
2021/11/19 04:26:45;;;;;;;3.20;0.77;;;11.60;99.90;;;;;;4966856;28;20063;-95
2021/11/19 04:29:11;;;;;;;5.00;1.10;;;11.60;99.90;;;;;;4964777;28;20107;-96
2021/11/19 04:31:37;;;;;;;3.25;1.10;;;11.60;99.90;;;;;;4963378;28;20027;-95
2021/11/19 04:34:06;;;;;;;3.08;1.00;;;11.60;99.90;;;;;;4957784;28;20046;-95
2021/11/19 04:36:32;;;;;;;1.17;0.70;;;11.60;99.90;;;;;;4955533;28;20038;-95
2021/11/19 04:38:58;;;;;;;1.58;1.20;;;11.60;99.90;;;;;;4956012;28;20031;-95
2021/11/19 04:41:24;;;;;;;2.33;1.00;;;11.60;99.90;;;;;;4958052;28;20492;-94
2021/11/19 04:43:50;;;;;;;3.53;1.40;;;11.70;99.90;;;;;;4956056;28;20031;-94
2021/11/19 04:46:17;;;;;;;3.42;1.30;;;11.70;99.90;;;;;;4956502;29;20037;-95
2021/11/19 04:48:43;;;;;;;3.10;1.10;;;11.70;99.90;;;;;;4961401;28;20095;-96
2021/11/19 04:51:16;;;;;;;3.50;1.40;;;11.70;99.90;;;;;;4956904;28;20042;-95
2021/11/19 04:53:42;;;;;;;5.15;1.25;;;11.60;99.90;;;;;;4956498;28;20034;-95
2021/11/19 04:56:08;;;;;;;2.05;1.17;;;11.60;99.90;;;;;;4958645;28;20031;-95
2021/11/19 04:58:35;;;;;;;2.42;1.30;;;11.60;99.90;;;;;;4961793;28;20078;-95
2021/11/19 05:01:07;;;;;;;4.72;1.25;;;11.60;99.90;;;;;;4962551;28;20067;-95
2021/11/19 05:03:33;;;;;;;1.67;1.02;;;11.60;99.90;;;;;;4961848;28;20091;-95
2021/11/19 05:06:00;;;;;;;3.40;0.95;;;11.60;99.90;;;;;;4960606;28;20077;-95
2021/11/19 05:08:29;;;;;;;3.70;1.30;;;11.60;99.90;;;;;;4964472;28;20038;-96
2021/11/19 05:10:57;;;;;;;1.80;1.10;;;11.60;99.90;;;;;;4964628;29;20030;-96
2021/11/19 05:13:25;;;;;;;5.43;1.25;;;11.60;99.90;;;;;;4965556;28;20055;-96
2021/11/19 05:15:56;;;;;;;4.80;1.27;;;11.60;99.90;;;;;;4970263;29;20055;-95
2021/11/19 05:18:29;;;;;;;2.83;1.20;;;11.60;99.90;;;;;;4971788;28;20034;-94
2021/11/19 05:20:56;;;;;;;2.67;1.23;;;11.60;99.90;;;;;;4966318;28;20051;-95
2021/11/19 05:23:24;;;;;;;4.32;1.10;;;11.50;99.90;;;;;;4956881;28;20042;-96
2021/11/19 05:25:53;;;;;;;5.03;1.20;;;11.60;99.90;;;;;;4958382;29;20043;-95
2021/11/19 05:36:13;;;;;;;4.68;0.95;;;11.50;99.90;;;;;;5808593;23;20050;-94
2021/11/19 05:38:42;;;;;;;8.85;1.45;;;11.50;99.90;;;;;;5033933;28;20109;-95
2021/11/19 05:41:15;;;;;;;2.15;1.30;;;11.60;99.90;;;;;;5020683;28;20039;-94
2021/11/19 05:43:45;;;;;;;4.88;1.20;;;11.60;99.90;;;;;;5035262;28;20010;-95
2021/11/19 05:57:44;;;;;;;2.63;1.50;;;11.50;99.90;;;;;;5243575;23;20074;-94
2021/11/19 06:00:20;;;;;;;1.70;0.98;;;11.50;99.90;;;;;;5014374;28;20106;-96
2021/11/19 06:02:50;;;;;;;6.47;1.40;;;11.50;99.90;;;;;;5012113;28;20023;-95
2021/11/19 06:05:17;;;;;;;7.75;2.67;;;11.50;99.90;;;;;;5017245;28;20099;-96
2021/11/19 06:07:43;;;;;;;3.03;1.25;;;11.50;99.90;;;;;;5001388;28;20038;-96
2021/11/19 06:10:19;;;;;;;2.25;1.20;;;11.50;99.90;;;;;;5018476;28;20113;-96
2021/11/19 06:12:50;;;;;;;3.95;1.52;;;11.50;99.90;;;;;;5017261;28;20033;-96
2021/11/19 06:15:33;;;;;;;2.58;1.35;;;11.50;99.90;;;;;;5001572;28;20029;-96
2021/11/19 06:21:32;;;;;;;4.88;0.90;;;11.50;99.90;;;;;;5216483;23;21272;-94
2021/11/19 06:24:09;;;;;;;2.00;1.20;;;11.50;99.90;;;;;;5015972;28;20177;-95
2021/11/19 06:26:39;;;;;;;3.30;1.58;;;11.50;99.90;;;;;;5000558;28;20447;-95
2021/11/19 06:29:06;;;;;;;1.83;1.20;;;11.50;99.90;;;;;;5013702;28;20023;-94
2021/11/19 06:31:35;;;;;;;4.28;1.23;;;11.50;99.90;;;;;;5007326;28;20022;-95
2021/11/19 06:34:05;;;;;;;5.85;1.27;;;11.50;99.90;;;;;;5007567;28;20022;-95
2021/11/19 06:36:47;;;;;;;3.00;1.23;;;11.50;99.90;;;;;;5008780;28;20064;-95
2021/11/19 06:39:24;;;;;;;2.03;1.13;;;11.50;99.90;;;;;;5003122;28;20047;-96
2021/11/19 06:41:53;;;;;;;3.75;1.40;;;11.50;99.90;;;;;;5012839;28;20117;-96
2021/11/19 06:44:19;;;;;;;2.60;1.52;;;11.50;99.90;;;;;;5010708;28;20026;-96
2021/11/19 06:46:45;;;;;;;3.95;1.20;;;11.50;99.90;;;;;;5008623;28;20183;-96
2021/11/19 06:49:12;;;;;;;4.95;1.40;;;11.50;99.90;;;;;;5011022;28;20038;-95
2021/11/19 06:51:47;;;;;;;6.00;1.80;;;11.40;99.90;;;;;;5013620;28;20022;-96
2021/11/19 06:54:21;;;;;;;3.70;1.20;;;11.40;99.90;;;;;;4988516;28;20042;-94
2021/11/19 06:56:47;;;;;;;4.10;1.23;;;11.40;99.90;;;;;;4978289;28;20034;-95
2021/11/19 06:59:14;;;;;;;6.75;1.60;;;11.40;99.90;;;;;;5004896;28;20034;-95
2021/11/19 07:01:43;;;;;;;2.53;1.30;;;11.30;99.90;;;;;;5005369;28;20023;-96
2021/11/19 07:04:10;;;;;;;4.50;1.30;;;11.30;99.90;;;;;;4975976;28;20030;-95
2021/11/19 07:06:37;;;;;;;4.03;1.33;;;11.30;99.90;;;;;;5003587;28;20117;-95
2021/11/19 07:09:05;;;;;;;3.97;1.40;;;11.30;99.90;;;;;;5010213;28;20057;-93
2021/11/19 07:11:31;;;;;;;2.85;1.30;;;11.20;99.90;;;;;;5015535;28;20023;-95
2021/11/19 07:14:07;;;;;;;3.15;1.30;;;11.20;99.90;;;;;;5012533;28;20034;-94
2021/11/19 07:16:34;;;;;;;2.45;1.13;;;11.20;99.90;;;;;;5014020;28;20107;-94
2021/11/19 07:19:06;;;;;;;1.70;1.00;;;11.10;99.90;;;;;;5008738;28;20022;-96
2021/11/19 07:21:36;;;;;;;3.28;1.00;;;11.10;99.90;;;;;;4996662;28;20027;-95
2021/11/19 07:24:06;;;;;;;2.77;1.20;;;11.10;99.90;;;;;;4988121;28;20091;-95
2021/11/19 07:26:37;;;;;;;2.75;1.30;;;11.10;99.90;;;;;;4996677;28;20281;-95
2021/11/19 07:29:04;;;;;;;1.42;1.00;;;11.10;99.90;;;;;;4999291;28;20029;-95
2021/11/19 07:31:35;;;;;;;5.13;1.30;;;11.10;99.90;;;;;;4993112;28;20125;-95
2021/11/19 07:34:10;;;;;;;1.70;1.33;;;11.10;99.90;;;;;;4987910;28;20020;-94
2021/11/19 07:36:52;;;;;;;3.20;1.55;;;11.10;99.90;;;;;;4987917;28;20031;-94
2021/11/19 07:39:18;;;;;;;4.47;1.60;;;11.10;99.90;;;;;;4990026;28;20047;-95
2021/11/19 07:41:44;;;;;;;3.17;1.35;;;11.10;99.90;;;;;;4995957;28;20051;-93
2021/11/19 07:44:13;;;;;;;2.72;1.25;;;11.10;99.90;;;;;;4989615;28;20027;-95
2021/11/19 07:46:42;;;;;;;2.05;1.35;;;11.10;99.90;;;;;;4993112;28;20031;-95
2021/11/19 07:49:08;;;;;;;4.60;1.20;;;11.10;99.90;;;;;;4982488;28;20061;-95
2021/11/19 07:51:37;;;;;;;3.88;1.15;;;11.10;99.90;;;;;;4976418;28;20042;-94
2021/11/19 07:54:07;;;;;;;5.95;1.65;;;11.10;99.90;;;;;;4981889;28;20197;-95
2021/11/19 07:56:38;;;;;;;3.60;1.60;;;11.20;99.90;;;;;;4987421;28;20027;-95
2021/11/19 07:59:49;;;;;;;9.48;2.47;;;11.20;99.90;;;;;;4994957;28;20094;-95
2021/11/19 08:02:18;;;;;;;4.43;1.50;;;11.20;99.90;;;;;;4889248;29;20032;-94
2021/11/19 08:04:46;;;;;;;6.30;1.73;;;11.20;99.90;;;;;;4908946;29;20154;-94
2021/11/19 08:07:12;;;;;;;3.17;1.88;;;11.20;99.90;;;;;;4902923;29;20046;-95
2021/11/19 08:09:38;;;;;;;4.43;1.75;;;11.20;99.90;;;;;;4894613;29;20076;-93
2021/11/19 08:12:05;;;;;;;3.78;1.60;;;11.20;99.90;;;;;;4906601;29;20036;-96
2021/11/19 08:14:31;;;;;;;3.30;1.58;;;11.20;99.90;;;;;;4905738;29;20032;-95
2021/11/19 08:17:15;;;;;;;4.88;1.30;;;11.30;99.90;;;;;;4916693;29;20072;-94
2021/11/19 08:19:46;;;;;;;2.92;1.63;;;11.20;99.90;;;;;;4907257;29;20047;-95
2021/11/19 08:22:14;;;;;;;2.15;1.73;;;11.20;99.90;;;;;;4899114;29;20123;-96
2021/11/19 08:24:40;;;;;;;5.38;2.08;;;11.20;99.90;;;;;;4911649;29;20039;-95
2021/11/19 08:27:11;;;;;;;5.00;1.90;;;11.20;99.90;;;;;;4918620;29;20032;-94
2021/11/19 08:29:40;;;;;;;3.63;2.00;;;11.20;99.90;;;;;;4903935;29;20042;-95
2021/11/19 08:32:08;;;;;;;3.25;1.40;;;11.30;99.90;;;;;;4909813;29;20032;-95
2021/11/19 08:34:35;;;;;;;4.07;2.00;;;11.30;99.90;;;;;;4904620;29;20032;-95
2021/11/19 08:37:02;;;;;;;8.18;2.00;;;11.30;99.90;;;;;;4970998;28;20034;-95
2021/11/19 08:39:32;;;;;;;3.13;1.90;;;11.30;99.90;;;;;;5004138;28;20039;-95
2021/11/19 08:41:58;;;;;;;5.50;1.90;;;11.30;99.90;;;;;;4984293;28;20038;-95
2021/11/19 08:44:27;;;;;;;4.45;2.35;;;11.30;99.90;;;;;;4987597;28;20026;-95
2021/11/19 08:46:55;;;;;;;4.78;2.47;;;11.30;99.90;;;;;;4978982;28;20089;-93
2021/11/19 08:49:29;;;;;;;8.10;3.42;;;11.30;99.90;;;;;;4990233;28;20019;-95
2021/11/19 08:51:56;;;;;;;8.73;4.07;;;11.30;99.90;;;;;;4979817;28;20107;-96
2021/11/19 08:54:23;;;;;;;5.85;4.43;;;11.40;99.90;;;;;;4993241;28;20078;-95
2021/11/19 08:57:11;;;;;;;5.53;3.53;;;11.40;99.90;;;;;;4997679;28;20026;-95
2021/11/19 08:59:42;;;;;;;7.50;4.05;;;11.40;99.90;;;;;;4971619;28;20098;-95
2021/11/19 09:02:22;;;;;;;6.60;3.90;;;11.40;99.90;;;;;;4990089;28;20093;-95
2021/11/19 09:04:53;;;;;;;7.00;3.50;;;11.50;99.90;;;;;;4978934;28;20067;-95
2021/11/19 09:07:19;;;;;;;2.50;2.30;;;11.60;99.90;;;;;;5008729;28;20038;-95
2021/11/19 09:23:48;;;;;;;2.58;1.08;;;12.70;99.90;;;;;;5952268;23;20028;-94
2021/11/19 09:29:17;;;;;;;1.08;0.77;;;13.20;99.90;;;;;;5251572;23;20046;-94
2021/11/19 09:31:47;;;;;;;1.60;1.38;;;13.40;99.90;;;;;;5009723;28;20026;-94
2021/11/19 09:34:17;;;;;;;3.22;1.00;;;13.60;99.90;;;;;;5010414;28;20030;-95
2021/11/19 09:36:44;;;;;;;1.38;0.80;;;13.90;99.90;;;;;;5008374;28;20030;-95
2021/11/19 09:39:17;;;;;;;2.92;0.82;;;14.10;99.90;;;;;;5012350;28;20031;-95
2021/11/19 09:41:53;;;;;;;1.80;0.90;;;14.40;99.90;;;;;;5016179;28;20078;-95
2021/11/19 09:44:43;;;;;;;4.72;1.02;;;14.60;99.90;;;;;;5009359;28;20038;-95
2021/11/19 09:47:11;;;;;;;3.67;0.90;;;14.90;99.90;;;;;;5010518;28;20031;-95
2021/11/19 09:49:48;;;;;;;2.30;1.20;;;15.10;99.90;;;;;;5015202;28;20049;-94
2021/11/19 10:33:39;;;;;;;1.80;0.70;;;16.80;95.30;;;;;;5567256;23;20050;-94
2021/11/19 10:36:17;;;;;;;0.45;0.35;;;17.00;95.30;;;;;;5018929;28;20122;-96
2021/11/19 10:39:12;;;;;;;1.25;0.40;;;17.10;94.80;;;;;;5116364;23;20045;-95
2021/11/19 10:41:53;;;;;;;0.60;0.50;;;17.10;94.20;;;;;;5042720;28;20046;-94
2021/11/19 10:44:41;;;;;;;0.82;0.52;;;17.20;93.80;;;;;;5051567;28;20077;-95
2021/11/19 10:47:45;;;;;;;0.38;0.38;;;17.10;93.10;;;;;;5033879;28;20034;-95
2021/11/19 10:50:58;;;;;;;1.85;0.50;;;16.80;92.90;;;;;;5038658;28;20033;-96
2021/11/19 10:53:45;;;;;;;0.73;0.50;;;16.70;93.20;;;;;;5039011;28;20059;-95
2021/11/19 10:56:30;;;;;;;1.23;0.95;;;16.60;93.60;;;;;;5042323;28;20038;-96
2021/11/19 10:59:20;;;;;;;1.02;0.52;;;16.60;93.90;;;;;;5040076;28;20033;-95
2021/11/19 11:01:58;;;;;;;3.42;0.82;;;16.70;93.60;;;;;;5048277;23;20066;-95
2021/11/19 11:04:52;;;;;;;1.25;0.63;;;16.60;93.20;;;;;;5015849;28;20034;-95
2021/11/19 11:07:35;;;;;;;0.82;0.70;;;16.60;93.20;;;;;;5018418;28;20022;-95
2021/11/19 11:10:19;;;;;;;1.70;0.80;;;16.40;93.40;;;;;;5017030;28;20057;-95
2021/11/19 11:12:51;;;;;;;1.08;0.70;;;16.20;93.40;;;;;;5011879;28;20029;-95
2021/11/19 11:15:30;;;;;;;1.00;0.80;;;16.00;93.60;;;;;;5013699;28;20039;-96
2021/11/19 11:18:05;;;;;;;1.10;0.85;;;15.70;94.10;;;;;;5007629;28;20058;-95
2021/11/19 11:20:56;;;;;;;2.35;0.77;;;15.60;94.60;;;;;;5005109;28;20030;-94
2021/11/19 11:23:25;;;;;;;;;;;15.40;95.00;;;;;;4986607;28;20023;-96
2021/11/19 11:26:12;;;;;;;3.25;0.68;;;15.20;95.30;;;;;;4985181;28;20643;-95
2021/11/19 11:28:41;;;;;;;1.27;0.65;;;15.00;95.80;;;;;;4988996;28;20118;-96
2021/11/19 11:31:51;;;;;;;0.95;0.70;;;14.80;96.30;;;;;;4990280;28;20019;-95
2021/11/19 11:34:28;;;;;;;1.38;0.80;;;14.70;96.90;;;;;;4994582;28;20094;-96
2021/11/19 11:37:10;;;;;;;0.75;0.50;;;14.60;97.30;;;;;;4990538;28;20023;-96
2021/11/19 11:39:42;;;;;;;1.63;0.70;;;14.40;97.60;;;;;;4989196;28;20545;-95
2021/11/19 11:42:49;;;;;;;4.32;0.80;;;14.30;97.90;;;;;;4976206;28;20027;-94
2021/11/19 11:45:41;;;;;;;0.77;0.50;;;14.30;98.30;;;;;;4887020;29;20021;-95
2021/11/19 11:48:40;;;;;;;1.25;0.50;;;14.20;98.50;;;;;;4885207;29;20031;-95
2021/11/19 11:51:24;;;;;;;0.75;0.60;;;14.10;98.90;;;;;;4914709;29;20044;-96
2021/11/19 11:54:22;;;;;;;2.47;0.63;;;14.10;99.20;;;;;;5055650;23;20065;-96
2021/11/19 11:57:09;;;;;;;3.13;0.80;;;14.00;99.40;;;;;;5011598;28;20076;-96
2021/11/19 11:59:50;;;;;;;1.73;0.88;;;13.90;99.70;;;;;;5008226;28;20042;-96
2021/11/19 12:02:38;;;;;;;2.88;0.80;;;13.90;99.90;;;;;;5013213;28;20093;-96
2021/11/19 12:05:25;;;;;;;0.80;0.70;;;13.80;99.90;;;;;;5010884;28;20026;-96
2021/11/19 12:08:29;;;;;;;1.90;0.52;;;13.80;99.90;;;;;;5014783;28;20027;-96
2021/11/19 12:11:45;;;;;;;2.22;0.80;;;13.70;99.90;;;;;;5016353;28;20057;-95
2021/11/19 12:53:21;;;;;;;3.03;1.10;;;13.80;99.90;;;;;;6074250;23;20025;31
2021/11/19 12:56:16;;;;;;;3.30;1.08;;;13.80;99.90;;;;;;4962768;28;20257;-94
2021/11/19 12:58:47;;;;;;;3.22;1.40;;;13.90;99.90;;;;;;4970484;29;20180;-96
2021/11/19 13:01:41;;;;;;;3.25;0.90;;;13.80;99.90;;;;;;4976891;29;20070;-95
2021/11/19 13:04:49;;;;;;;3.22;1.10;;;13.80;99.90;;;;;;4974475;29;20034;-95
2021/11/19 13:10:46;;;;;;;1.38;1.00;;;14.00;99.90;;;;;;4971680;29;20042;-96
2021/11/19 13:13:28;;;;;;;1.38;1.27;;;14.00;99.90;;;;;;4971428;29;20023;-95
2021/11/19 13:16:18;;;;;;;2.13;1.30;;;14.00;99.90;;;;;;4966797;29;20043;-96
2021/11/19 13:18:50;;;;;;;3.83;1.10;;;14.00;99.90;;;;;;4967345;29;20015;-96
2021/11/19 13:21:43;;;;;;;3.97;1.13;;;14.00;99.90;;;;;;4951655;29;20038;-96
2021/11/19 13:24:12;;;;;;;3.33;1.20;;;13.90;99.90;;;;;;4953537;29;20024;-95
2021/11/19 13:26:49;;;;;;;2.03;1.20;;;13.90;99.90;;;;;;4946982;29;20103;-96
2021/11/19 13:29:55;;;;;;;2.53;1.23;;;13.80;99.90;;;;;;4939239;29;20039;-96
2021/11/19 13:32:27;;;;;;;2.10;1.08;;;13.80;99.90;;;;;;4943963;29;20055;-95
2021/11/19 13:35:08;;;;;;;2.22;0.88;;;13.80;99.90;;;;;;4946292;29;20019;-95
2021/11/19 13:37:54;;;;;;;1.55;0.93;;;13.80;99.90;;;;;;4948700;29;20095;-96
2021/11/19 13:40:40;;;;;;;1.08;0.98;;;13.80;99.90;;;;;;4951986;29;20035;-95
2021/11/19 13:43:11;;;;;;;3.03;1.10;;;13.80;99.90;;;;;;4927429;29;20044;-96
2021/11/19 13:45:54;;;;;;;2.45;1.00;;;13.90;99.90;;;;;;4941005;29;20056;-96
2021/11/19 13:48:50;;;;;;;1.85;1.10;;;14.00;99.90;;;;;;4943421;29;20184;-96
2021/11/19 13:54:00;;;;;;;5.65;1.20;;;14.10;99.90;;;;;;5064016;23;20044;-94
2021/11/19 13:56:34;;;;;;;3.17;1.33;;;14.10;99.90;;;;;;4985736;28;20052;-95
2021/11/19 13:59:28;;;;;;;3.20;1.27;;;13.90;99.90;;;;;;5001494;28;20030;-96
2021/11/19 14:02:07;;;;;;;4.13;1.80;;;13.80;99.90;;;;;;4998197;28;20412;-96
2021/11/19 14:04:49;;;;;;;2.58;1.35;;;13.80;99.90;;;;;;4998214;28;20022;-95
2021/11/19 14:07:34;;;;;;;1.98;1.30;;;13.70;99.90;;;;;;4997874;28;20054;-96
2021/11/19 14:10:03;;;;;;;1.20;1.10;;;13.60;99.90;;;;;;4979414;28;20030;-96
2021/11/19 14:12:34;;;;;;;4.00;1.75;;;13.50;99.90;;;;;;4979637;28;20484;-96
2021/11/19 14:15:23;;;;;;;4.95;2.30;;;13.40;99.90;;;;;;4978982;28;20030;-96
2021/11/19 14:17:52;;;;;;;1.83;1.70;;;13.30;99.90;;;;;;4991679;28;20027;-95
2021/11/19 14:23:40;;;;;;;3.30;1.92;;;13.30;99.90;;;;;;5003018;28;20576;-96
2021/11/19 14:26:17;;;;;;;5.53;2.25;;;13.20;99.90;;;;;;4984277;28;20048;-95
2021/11/19 14:28:48;;;;;;;3.47;2.90;;;13.20;99.90;;;;;;4998716;28;20181;-95
2021/11/19 14:31:15;;;;;;;4.15;2.38;;;13.20;99.90;;;;;;4998469;28;20030;-95
2021/11/19 14:34:04;;;;;;;4.53;2.55;;;13.10;99.90;;;;;;4997607;28;20472;-94
2021/11/19 14:36:39;;;;;;;4.25;3.30;;;13.10;99.90;;;;;;4998389;28;20121;-94
2021/11/19 14:39:10;;;;;;;3.65;3.13;;;13.10;99.90;;;;;;5002894;28;20045;-94
2021/11/19 14:42:00;;;;;;;4.60;2.90;;;13.20;99.90;;;;;;5005687;28;20026;-95
2021/11/19 14:44:37;;;;;;;3.33;3.03;;;13.20;99.90;;;;;;5007648;28;20503;-96
2021/11/19 14:47:30;;;;;;;4.93;3.38;;;13.30;99.90;;;;;;5012202;28;20038;-95
2021/11/19 14:50:10;;;;;;;5.60;3.30;;;13.30;99.90;;;;;;5017348;28;20046;-95
2021/11/19 14:52:46;;;;;;;4.33;3.47;;;13.30;99.90;;;;;;5018457;28;20054;-95
2021/11/19 14:55:33;;;;;;;3.45;3.15;;;13.40;99.90;;;;;;5008746;28;20328;-95
2021/11/19 14:58:21;;;;;;;5.55;3.72;;;13.40;99.90;;;;;;5007162;28;20022;-95
2021/11/19 15:01:08;;;;;;;6.95;3.70;;;13.30;99.90;;;;;;5038649;23;20074;-93
2021/11/19 15:03:51;;;;;;;4.22;3.60;;;13.30;99.90;;;;;;4984057;28;20022;-96
2021/11/19 15:06:27;;;;;;;6.60;3.97;;;13.30;99.90;;;;;;4982340;28;20053;-96
2021/11/19 15:09:28;;;;;;;5.03;4.35;;;13.30;99.90;;;;;;4984349;28;20027;-96
2021/11/19 15:12:05;;;;;;;5.53;4.30;;;13.40;99.90;;;;;;4984184;28;20023;-95
2021/11/19 15:14:50;;;;;;;9.35;4.60;;;13.40;99.90;;;;;;4981869;28;20035;-95
2021/11/19 15:17:33;;;;;;;6.80;4.25;;;13.50;99.90;;;;;;4969809;28;20027;-96
2021/11/19 15:20:21;;;;;;;6.15;4.60;;;13.50;99.90;;;;;;4977448;28;20553;-94
2021/11/19 15:22:56;;;;;;;7.85;4.47;;;13.50;99.90;;;;;;4973781;28;20469;-95
2021/11/19 15:25:22;;;;;;;6.80;4.03;;;13.50;99.90;;;;;;4965049;28;20055;-94
2021/11/19 15:28:27;;;;;;;4.75;3.80;;;13.50;99.90;;;;;;4968638;28;20023;-95
2021/11/19 15:31:22;;;;;;;6.85;4.15;;;13.50;99.90;;;;;;4963820;28;20027;-96
2021/11/19 15:34:14;;;;;;;7.55;4.07;;;13.40;99.90;;;;;;4973078;28;20160;-95
2021/11/19 15:36:46;;;;;;;7.90;4.38;;;13.40;99.90;;;;;;4968637;29;20035;-95
2021/11/19 15:39:13;;;;;;;7.30;4.35;;;13.30;99.90;;;;;;4983965;28;20488;-96